Time;durP1;ratioP1;P1;durP2;ratioP2;P2;SDS_P1;SDS_P2;PMS_P1;PMS_P2;Temp;Humidity;BMP_temperature;BMP_pressure;BME280_temperature;BME280_humidity;BME280_pressure;Samples;Min_cycle;Max_cycle;Signal;HPM_P1;HPM_P2
2021/12/03 00:01:59;;;;;;;22.88;14.95;;;;;;;2.01;82.59;99114.84;5029613;28;20044;-78
2021/12/03 00:04:24;;;;;;;28.58;14.85;;;;;;;2.03;82.93;99112.22;5029825;28;20060;-78
2021/12/03 00:06:50;;;;;;;24.40;14.73;;;;;;;2.07;82.36;99108.66;5030147;28;20113;-79
2021/12/03 00:09:15;;;;;;;27.50;17.70;;;;;;;2.08;82.33;99113.78;5021507;28;20532;-77
2021/12/03 00:11:41;;;;;;;28.00;16.27;;;;;;;2.09;82.31;99110.31;5018157;28;20061;-78
2021/12/03 00:14:06;;;;;;;30.67;16.75;;;;;;;2.10;82.16;99109.41;5009918;28;20056;-77
2021/12/03 00:16:32;;;;;;;21.95;13.80;;;;;;;2.13;81.77;99105.88;5015402;28;20523;-79
2021/12/03 00:18:58;;;;;;;33.13;15.82;;;;;;;2.13;82.16;99113.69;5023545;28;20037;-76
2021/12/03 00:21:26;;;;;;;21.85;14.13;;;;;;;2.13;82.08;99101.53;5022663;28;20030;-77
2021/12/03 00:23:51;;;;;;;23.17;13.38;;;;;;;2.14;81.87;99092.84;5021890;28;20060;-78
2021/12/03 00:26:17;;;;;;;26.33;14.63;;;;;;;2.14;81.78;99094.56;5002746;28;20436;-76
2021/12/03 00:28:42;;;;;;;27.83;14.05;;;;;;;2.16;82.27;99082.38;5017135;28;20038;-78
2021/12/03 00:31:08;;;;;;;26.17;13.13;;;;;;;2.17;82.17;99089.31;5023019;28;20038;-77
2021/12/03 00:33:35;;;;;;;26.85;13.10;;;;;;;2.16;81.44;99092.78;5030054;28;20038;-79
2021/12/03 00:36:05;;;;;;;22.83;14.75;;;;;;;2.14;82.00;99084.16;5032819;28;20183;-76
2021/12/03 00:38:39;;;;;;;26.52;14.20;;;;;;;2.11;81.89;99089.44;5035131;28;20037;-77
2021/12/03 00:41:07;;;;;;;31.00;15.05;;;;;;;2.09;81.67;99086.03;5036228;28;20063;-76
2021/12/03 00:43:34;;;;;;;36.17;15.02;;;;;;;2.12;82.09;99104.19;5036271;28;20040;-77
2021/12/03 00:46:05;;;;;;;19.00;12.27;;;;;;;2.10;81.94;99101.59;5038937;28;20037;-78
2021/12/03 00:48:32;;;;;;;22.75;13.15;;;;;;;2.14;82.40;99099.75;5021150;28;20523;-77
2021/12/03 00:50:58;;;;;;;28.10;13.25;;;;;;;2.17;82.10;99104.03;5032271;28;20040;-77
2021/12/03 00:53:23;;;;;;;24.70;15.18;;;;;;;2.19;82.02;99108.31;5034441;28;20092;-78
2021/12/03 00:55:49;;;;;;;21.30;13.88;;;;;;;2.25;82.05;99107.31;5035744;28;20042;-77
2021/12/03 00:58:14;;;;;;;26.13;14.13;;;;;;;2.23;81.80;99099.53;5034181;28;20064;-77
2021/12/03 01:00:40;;;;;;;28.75;15.20;;;;;;;2.26;82.16;99091.66;5034053;28;20036;-77
2021/12/03 01:03:05;;;;;;;22.48;13.00;;;;;;;2.31;82.01;99097.59;5032019;28;20040;-78
2021/12/03 01:05:33;;;;;;;23.40;14.85;;;;;;;2.33;82.10;99095.78;5030815;28;20064;-78
2021/12/03 01:07:59;;;;;;;18.05;13.45;;;;;;;2.30;81.81;99101.09;5030048;28;20034;-78
2021/12/03 01:10:25;;;;;;;27.15;15.32;;;;;;;2.35;81.95;99104.41;5031435;28;20045;-77
2021/12/03 01:12:52;;;;;;;27.08;15.77;;;;;;;2.34;81.88;99107.91;5031222;28;20045;-78
2021/12/03 01:15:24;;;;;;;20.55;14.82;;;;;;;2.33;81.75;99103.59;5030855;28;20092;-78
2021/12/03 01:17:51;;;;;;;21.95;13.25;;;;;;;2.32;81.38;99122.72;5035194;28;20037;-77
2021/12/03 01:20:17;;;;;;;21.83;14.35;;;;;;;2.35;81.74;99117.41;5038605;28;20117;-79
2021/12/03 01:22:45;;;;;;;23.25;14.20;;;;;;;2.38;81.59;99126.03;5033789;28;20053;-78
2021/12/03 01:25:13;;;;;;;30.45;16.67;;;;;;;2.39;81.12;99118.19;5020292;28;20041;-77
2021/12/03 01:27:38;;;;;;;29.55;16.25;;;;;;;2.38;81.06;99113.88;5013551;28;20077;-77
2021/12/03 01:30:06;;;;;;;29.42;15.32;;;;;;;2.38;81.11;99118.22;5014161;28;20038;-77
2021/12/03 01:32:31;;;;;;;26.25;13.05;;;;;;;2.42;81.46;99115.50;4998254;28;20030;-77
2021/12/03 01:34:57;;;;;;;20.75;13.10;;;;;;;2.47;81.21;99111.03;5019676;28;20045;-79
2021/12/03 01:37:22;;;;;;;27.38;15.32;;;;;;;2.49;80.91;99111.00;5013397;28;20034;-79
2021/12/03 01:39:47;;;;;;;23.73;14.23;;;;;;;2.45;80.76;99102.41;5016733;28;20057;-78
2021/12/03 01:42:13;;;;;;;29.02;14.48;;;;;;;2.47;80.64;99107.59;5023299;28;20029;-79
2021/12/03 01:44:38;;;;;;;25.15;13.35;;;;;;;2.49;80.36;99116.22;5022599;28;20121;-78
2021/12/03 01:47:04;;;;;;;24.90;13.63;;;;;;;2.48;80.03;99120.53;5020371;28;20038;-78
2021/12/03 01:49:29;;;;;;;22.90;14.40;;;;;;;2.49;80.44;99116.22;5005246;28;20045;-78
2021/12/03 01:51:55;;;;;;;22.33;14.05;;;;;;;2.48;80.36;99125.75;5028991;28;20045;-78
2021/12/03 01:54:20;;;;;;;31.23;14.35;;;;;;;2.48;80.32;99130.09;5026125;28;20037;-78
2021/12/03 01:56:46;;;;;;;28.88;13.77;;;;;;;2.45;80.41;99136.22;5028715;28;20034;-78
2021/12/03 01:59:11;;;;;;;20.75;13.85;;;;;;;2.42;80.44;99128.53;5031646;28;20045;-78
2021/12/03 02:01:37;;;;;;;28.10;15.60;;;;;;;2.41;80.83;99132.00;4997522;28;20038;-78
2021/12/03 02:04:03;;;;;;;22.42;14.75;;;;;;;2.42;80.91;99125.91;5016399;28;20041;-76
2021/12/03 02:06:29;;;;;;;26.92;15.02;;;;;;;2.40;80.72;99127.69;5013551;28;20049;-76
2021/12/03 02:08:56;;;;;;;27.20;14.18;;;;;;;2.42;80.89;99127.66;5017042;28;20038;-76
2021/12/03 02:11:23;;;;;;;36.63;16.98;;;;;;;2.42;80.75;99132.88;5029431;28;20033;-76
2021/12/03 02:13:49;;;;;;;27.33;15.52;;;;;;;2.41;81.28;99126.78;5041659;28;20037;-77
2021/12/03 02:16:24;;;;;;;35.65;15.52;;;;;;;2.43;80.72;99126.75;5020141;28;20075;-78
2021/12/03 02:19:07;;;;;;;31.38;17.65;;;;;;;2.37;80.97;99119.97;4993209;28;20041;-79
2021/12/03 02:21:33;;;;;;;32.35;16.88;;;;;;;2.38;81.25;99118.22;5027354;28;20045;-78
2021/12/03 02:23:58;;;;;;;29.15;17.70;;;;;;;2.39;80.92;99118.19;5030968;28;20050;-78
2021/12/03 02:26:24;;;;;;;31.83;16.75;;;;;;;2.41;80.96;99107.75;5019907;28;20034;-77
2021/12/03 02:28:51;;;;;;;28.15;16.33;;;;;;;2.43;81.00;99103.34;5011210;28;20451;-77
2021/12/03 02:31:20;;;;;;;32.85;15.18;;;;;;;2.46;80.95;99095.47;5018700;28;20405;-79
2021/12/03 02:33:46;;;;;;;24.50;16.63;;;;;;;2.50;80.59;99097.94;5016896;28;20038;-79
2021/12/03 02:36:12;;;;;;;24.85;16.10;;;;;;;2.52;80.65;99097.91;5024755;28;20044;-79
2021/12/03 02:38:38;;;;;;;21.25;15.30;;;;;;;2.54;80.30;99096.97;5016915;28;20420;-78
2021/12/03 02:41:04;;;;;;;22.80;14.68;;;;;;;2.56;80.18;99096.94;4999826;28;20041;-77
2021/12/03 02:43:29;;;;;;;30.25;15.05;;;;;;;2.58;80.15;99092.50;5028275;28;20042;-78
2021/12/03 02:45:57;;;;;;;24.60;15.52;;;;;;;2.60;80.36;99098.53;5027950;28;20397;-78
2021/12/03 02:48:24;;;;;;;31.85;15.85;;;;;;;2.58;80.30;99097.72;5013150;28;20026;-79
2021/12/03 02:50:50;;;;;;;28.73;14.40;;;;;;;2.60;80.62;99092.47;5024137;28;20041;-77
2021/12/03 02:53:16;;;;;;;27.70;16.27;;;;;;;2.61;80.64;99088.97;5011721;28;20540;-77
2021/12/03 02:55:41;;;;;;;28.75;15.60;;;;;;;2.63;80.53;99089.78;5012045;28;20038;-77
2021/12/03 02:58:07;;;;;;;23.20;13.88;;;;;;;2.62;80.42;99088.94;5010521;28;20038;-77
2021/12/03 03:00:34;;;;;;;28.05;14.65;;;;;;;2.62;80.69;99095.91;5009250;28;20038;-77
2021/12/03 03:03:00;;;;;;;28.13;15.52;;;;;;;2.63;80.43;99089.78;5010865;28;20041;-77
2021/12/03 03:05:27;;;;;;;26.52;14.57;;;;;;;2.65;80.59;99085.41;4994828;28;20045;-78
2021/12/03 03:07:52;;;;;;;33.22;15.18;;;;;;;2.66;80.60;99093.19;4994791;28;20030;-78
2021/12/03 03:10:22;;;;;;;23.95;13.35;;;;;;;2.66;80.61;99107.91;5012442;28;20029;-78
2021/12/03 03:12:48;;;;;;;26.55;15.95;;;;;;;2.63;80.88;99116.66;5014353;28;20043;-77
2021/12/03 03:15:16;;;;;;;27.38;15.13;;;;;;;2.60;80.64;99114.16;5015617;28;20015;-76
2021/12/03 03:17:42;;;;;;;23.77;13.63;;;;;;;2.61;80.61;99115.00;5016624;28;20018;-78
2021/12/03 03:20:09;;;;;;;34.53;14.95;;;;;;;2.62;80.66;99111.50;5016069;28;20054;-76
2021/12/03 03:22:36;;;;;;;28.40;13.32;;;;;;;2.65;80.47;99114.03;5016319;28;20089;-77
2021/12/03 03:25:01;;;;;;;30.85;14.70;;;;;;;2.64;80.77;99112.34;5015683;28;20037;-77
2021/12/03 03:27:29;;;;;;;25.73;13.70;;;;;;;2.64;80.38;99110.56;5015902;28;20034;-76
2021/12/03 03:29:55;;;;;;;25.90;13.75;;;;;;;2.66;80.27;99098.38;5015142;28;20070;-76
2021/12/03 03:32:21;;;;;;;32.10;15.07;;;;;;;2.67;80.43;99092.25;5017349;28;20018;-76
2021/12/03 03:34:46;;;;;;;26.58;14.38;;;;;;;2.61;80.15;99100.25;5014838;28;20042;-75
2021/12/03 03:37:12;;;;;;;22.95;12.05;;;;;;;2.57;80.22;99099.47;5012927;28;20076;-77
2021/12/03 03:39:37;;;;;;;21.27;12.98;;;;;;;2.59;80.26;99094.25;5000277;28;20046;-77
2021/12/03 03:42:03;;;;;;;18.02;11.77;;;;;;;2.57;80.28;99091.66;4997971;28;20038;-77
2021/12/03 03:44:29;;;;;;;20.65;12.43;;;;;;;2.57;80.26;99093.44;4997501;28;20026;-77
2021/12/03 03:46:56;;;;;;;25.60;13.38;;;;;;;2.56;80.59;99091.72;4991334;28;20138;-77
2021/12/03 03:49:23;;;;;;;19.27;11.20;;;;;;;2.47;80.30;99098.03;4998177;28;20034;-77
2021/12/03 03:51:49;;;;;;;20.42;12.55;;;;;;;2.44;80.71;99105.91;4992909;28;20046;-77
2021/12/03 03:54:15;;;;;;;20.35;11.05;;;;;;;2.44;80.50;99099.88;4992697;28;20604;-78
2021/12/03 03:56:40;;;;;;;20.67;11.60;;;;;;;2.42;80.31;99094.69;4993575;28;20057;-77
2021/12/03 03:59:06;;;;;;;21.30;10.13;;;;;;;2.47;80.36;99089.38;4989605;28;20038;-77
2021/12/03 04:01:31;;;;;;;16.65;10.63;;;;;;;2.45;80.34;99096.38;4974902;28;20042;-79
2021/12/03 04:03:57;;;;;;;24.23;12.23;;;;;;;2.43;80.25;99087.75;4996175;28;20041;-79
2021/12/03 04:06:23;;;;;;;21.00;10.25;;;;;;;2.44;80.42;99092.06;4998751;28;20037;-79
2021/12/03 04:08:49;;;;;;;27.35;12.25;;;;;;;2.41;80.25;99092.13;5002652;28;20066;-79
2021/12/03 04:11:19;;;;;;;21.65;9.68;;;;;;;2.38;80.67;99087.03;4999979;28;20046;-78
2021/12/03 04:13:45;;;;;;;18.48;10.95;;;;;;;2.30;80.79;99088.06;4994417;28;20041;-78
2021/12/03 04:16:10;;;;;;;16.15;10.07;;;;;;;2.29;81.83;99095.91;4993777;28;20113;-79
2021/12/03 04:18:36;;;;;;;20.15;10.82;;;;;;;2.31;81.58;99092.41;5000119;28;20040;-79
2021/12/03 04:21:02;;;;;;;22.55;10.40;;;;;;;2.31;81.38;99095.00;5014509;28;20056;-80
2021/12/03 04:23:27;;;;;;;18.10;11.77;;;;;;;2.30;81.14;99095.03;5023739;28;20033;-78
2021/12/03 04:25:53;;;;;;;25.35;11.43;;;;;;;2.32;81.35;99086.28;5024816;28;20098;-78
2021/12/03 04:28:20;;;;;;;23.77;11.02;;;;;;;2.33;81.75;99080.19;5022451;28;20045;-80
2021/12/03 04:30:45;;;;;;;19.48;9.98;;;;;;;2.32;81.21;99077.66;5023776;28;20041;-80
2021/12/03 04:33:12;;;;;;;18.55;10.38;;;;;;;2.34;81.50;99083.66;5022977;28;20025;-79
2021/12/03 04:35:37;;;;;;;22.50;12.95;;;;;;;2.33;81.40;99085.38;5022658;28;20040;-79
2021/12/03 04:38:04;;;;;;;21.38;11.05;;;;;;;2.33;81.46;99090.59;5022393;28;20120;-79
2021/12/03 04:40:30;;;;;;;22.30;12.73;;;;;;;2.33;81.58;99082.78;5022565;28;20073;-80
2021/12/03 04:42:56;;;;;;;22.67;12.18;;;;;;;2.38;81.48;99081.81;5004701;28;20097;-77
2021/12/03 04:45:23;;;;;;;27.45;14.63;;;;;;;2.32;81.77;99073.28;5016407;28;20053;-78
2021/12/03 04:47:50;;;;;;;23.85;13.45;;;;;;;2.33;81.67;99064.56;5007741;28;20060;-79
2021/12/03 04:50:16;;;;;;;25.92;12.18;;;;;;;2.35;81.51;99065.41;5019543;28;20030;-80
2021/12/03 04:52:45;;;;;;;27.20;12.27;;;;;;;2.36;81.64;99067.13;5017842;28;20045;-81
2021/12/03 04:55:11;;;;;;;22.52;11.13;;;;;;;2.39;81.76;99075.72;5016513;28;20058;-78
2021/12/03 04:57:40;;;;;;;25.17;13.13;;;;;;;2.39;81.56;99073.97;5014935;28;20037;-79
2021/12/03 05:00:10;;;;;;;35.03;14.73;;;;;;;2.39;81.91;99075.72;5017084;28;20044;-80
2021/12/03 05:02:35;;;;;;;25.58;12.88;;;;;;;2.40;81.86;99069.63;4999757;28;20382;-80
2021/12/03 05:05:05;;;;;;;27.45;13.68;;;;;;;2.40;81.64;99074.84;5016585;28;20100;-79
2021/12/03 05:07:42;;;;;;;29.35;12.77;;;;;;;2.36;81.81;99069.72;5001988;28;20037;-79
2021/12/03 05:10:09;;;;;;;22.92;12.73;;;;;;;2.40;82.01;99080.03;5016857;28;20030;-79
2021/12/03 05:12:36;;;;;;;27.88;13.60;;;;;;;2.41;81.85;99086.94;5017188;28;20520;-79
2021/12/03 05:15:03;;;;;;;20.25;11.90;;;;;;;2.43;81.65;99082.53;5015771;28;20053;-79
2021/12/03 05:17:28;;;;;;;29.80;14.32;;;;;;;2.48;81.50;99094.50;5013528;28;20445;-78
2021/12/03 05:19:54;;;;;;;28.92;13.20;;;;;;;2.45;81.50;99091.16;5017277;28;20037;-80
2021/12/03 05:22:19;;;;;;;35.47;15.15;;;;;;;2.46;81.33;99088.53;5019061;28;20057;-79
2021/12/03 05:24:46;;;;;;;31.50;13.10;;;;;;;2.48;81.43;99086.72;5014131;28;20037;-80
2021/12/03 05:27:15;;;;;;;27.13;10.82;;;;;;;2.51;81.33;99089.25;5009324;28;20050;-80
2021/12/03 05:29:41;;;;;;;20.13;10.95;;;;;;;2.52;80.66;99097.91;5000108;28;20045;-80
2021/12/03 05:32:07;;;;;;;23.48;11.52;;;;;;;2.53;80.75;99099.59;5001141;28;20045;-79
2021/12/03 05:34:32;;;;;;;36.72;13.65;;;;;;;2.57;80.93;99104.69;5020019;28;20093;-79
2021/12/03 05:36:58;;;;;;;23.02;11.98;;;;;;;2.58;80.54;99103.81;5028826;28;20052;-79
2021/12/03 05:39:23;;;;;;;22.75;10.52;;;;;;;2.56;80.45;99102.13;5027300;28;20045;-79
2021/12/03 05:41:49;;;;;;;20.98;12.68;;;;;;;2.56;80.22;99105.59;5009063;28;20112;-78
2021/12/03 05:44:14;;;;;;;25.80;11.30;;;;;;;2.54;80.36;99109.13;5026744;28;20036;-77
2021/12/03 05:46:39;;;;;;;19.40;10.15;;;;;;;2.53;80.20;99110.84;5016468;28;20513;-76
2021/12/03 05:49:06;;;;;;;25.75;13.07;;;;;;;2.58;80.25;99097.72;5013943;28;20052;-77
2021/12/03 05:51:32;;;;;;;28.95;14.20;;;;;;;2.60;80.50;99098.53;5011228;28;20060;-77
2021/12/03 05:53:57;;;;;;;27.13;13.63;;;;;;;2.61;79.87;99102.88;5009400;28;20493;-77
2021/12/03 05:56:23;;;;;;;26.08;11.35;;;;;;;2.59;79.58;99102.03;5010038;28;20044;-77
2021/12/03 05:58:49;;;;;;;17.98;9.85;;;;;;;2.60;79.55;99098.53;5009866;28;20034;-77
2021/12/03 06:01:14;;;;;;;20.38;10.23;;;;;;;2.63;79.19;99098.44;5010561;28;20061;-76
2021/12/03 06:03:40;;;;;;;27.58;9.90;;;;;;;2.64;79.04;99099.31;5011874;28;20091;-79
2021/12/03 06:06:05;;;;;;;27.35;10.65;;;;;;;2.57;78.64;99096.03;5010671;28;20038;-78
2021/12/03 06:08:30;;;;;;;24.52;11.38;;;;;;;2.53;78.70;99105.66;5010455;28;20034;-78
2021/12/03 06:10:56;;;;;;;16.30;9.55;;;;;;;2.49;78.29;99104.03;5010339;28;20555;-78
2021/12/03 06:13:21;;;;;;;28.20;10.90;;;;;;;2.50;78.11;99107.50;5010583;28;20037;-77
2021/12/03 06:15:47;;;;;;;14.68;8.75;;;;;;;2.50;78.42;99097.09;5009619;28;20121;-76
2021/12/03 06:18:13;;;;;;;18.95;10.05;;;;;;;2.50;78.72;99103.13;5010801;28;20041;-77
2021/12/03 06:20:38;;;;;;;17.45;9.82;;;;;;;2.44;78.76;99095.50;5010412;28;20029;-77
2021/12/03 06:23:03;;;;;;;18.63;10.27;;;;;;;2.41;78.79;99105.13;5010038;28;20046;-77
2021/12/03 06:25:29;;;;;;;19.83;9.75;;;;;;;2.41;78.70;99099.94;5010308;28;20033;-76
2021/12/03 06:27:57;;;;;;;19.48;10.85;;;;;;;2.33;78.59;99101.00;5028701;28;20045;-78
2021/12/03 06:30:24;;;;;;;21.55;11.80;;;;;;;2.29;78.61;99096.78;5030866;28;20044;-79
2021/12/03 06:32:50;;;;;;;21.75;9.05;;;;;;;2.22;78.63;99090.03;5032708;28;20037;-77
2021/12/03 06:35:16;;;;;;;29.80;10.00;;;;;;;2.20;78.64;99089.22;5032479;28;20048;-76
2021/12/03 06:37:43;;;;;;;22.27;9.30;;;;;;;2.17;79.03;99094.50;5031923;28;20497;-77
2021/12/03 06:40:12;;;;;;;20.35;10.15;;;;;;;2.18;78.67;99098.81;5030355;28;20034;-77
2021/12/03 06:42:38;;;;;;;20.70;9.18;;;;;;;2.12;78.41;99091.19;5031956;28;20540;-77
2021/12/03 06:45:06;;;;;;;18.98;9.32;;;;;;;2.12;78.53;99089.44;5032083;28;20092;-77
2021/12/03 06:47:31;;;;;;;15.40;8.23;;;;;;;2.06;78.08;99086.13;5031967;28;20040;-77
2021/12/03 06:49:57;;;;;;;17.85;8.95;;;;;;;2.03;77.97;99094.84;5030473;28;20549;-77
2021/12/03 06:52:22;;;;;;;15.63;8.55;;;;;;;2.03;78.02;99096.59;5034440;28;20434;-77
2021/12/03 06:54:55;;;;;;;21.83;10.82;;;;;;;2.00;78.60;99092.34;5034434;28;20065;-79
2021/12/03 06:57:20;;;;;;;19.23;9.15;;;;;;;1.99;78.29;99093.22;5040962;28;20034;-78
2021/12/03 06:59:46;;;;;;;17.98;8.15;;;;;;;1.96;77.71;99089.84;5022245;28;20033;-78
2021/12/03 07:02:22;;;;;;;30.13;10.48;;;;;;;1.93;77.60;99086.44;5041895;28;20044;-79
2021/12/03 07:04:48;;;;;;;17.15;8.25;;;;;;;1.88;77.35;99090.06;5016048;28;20488;-80
2021/12/03 07:07:13;;;;;;;29.15;10.93;;;;;;;1.85;77.64;99090.13;5033464;28;20025;-78
2021/12/03 07:09:39;;;;;;;28.35;8.43;;;;;;;1.86;77.66;99089.22;5034440;28;20029;-79
2021/12/03 07:12:05;;;;;;;19.52;8.70;;;;;;;1.86;77.95;99095.28;5034371;28;20029;-80
2021/12/03 07:14:31;;;;;;;20.30;8.02;;;;;;;1.86;78.12;99097.03;5035976;28;20037;-80
2021/12/03 07:16:59;;;;;;;16.67;8.68;;;;;;;1.85;77.73;99083.19;5019047;28;20026;-78
2021/12/03 07:19:24;;;;;;;17.33;7.55;;;;;;;1.85;77.42;99090.13;5049052;28;20037;-77
2021/12/03 07:22:03;;;;;;;21.60;8.18;;;;;;;1.81;77.04;99089.34;5048163;28;20076;-79
2021/12/03 07:24:28;;;;;;;21.35;7.78;;;;;;;1.82;77.29;99093.66;5047662;28;20083;-79
2021/12/03 07:26:54;;;;;;;14.93;7.80;;;;;;;1.82;77.21;99092.78;5048339;28;20037;-79
2021/12/03 07:29:19;;;;;;;17.10;7.85;;;;;;;1.83;76.67;99082.38;5050516;28;20246;-80
2021/12/03 07:31:45;;;;;;;21.60;7.25;;;;;;;1.83;76.82;99078.91;5047157;28;20064;-79
2021/12/03 07:34:12;;;;;;;21.27;8.85;;;;;;;1.84;76.94;99091.84;5031577;28;20057;-80
2021/12/03 07:36:37;;;;;;;12.43;7.32;;;;;;;1.87;76.42;99088.31;5037821;28;20034;-79
2021/12/03 07:39:04;;;;;;;20.45;6.47;;;;;;;1.87;76.78;99091.81;5016747;28;20128;-78
2021/12/03 07:41:29;;;;;;;20.33;8.05;;;;;;;1.87;76.70;99085.72;5037402;28;20144;-77
2021/12/03 07:43:55;;;;;;;23.63;7.68;;;;;;;1.89;76.47;99083.94;5020128;28;20049;-78
2021/12/03 07:46:20;;;;;;;15.57;7.20;;;;;;;1.87;76.32;99083.13;5028292;28;20408;-77
2021/12/03 07:48:49;;;;;;;17.98;9.15;;;;;;;1.87;76.00;99083.13;5016656;28;20034;-78
2021/12/03 07:51:16;;;;;;;18.33;7.25;;;;;;;1.90;76.01;99083.06;4999251;28;20044;-79
2021/12/03 07:53:42;;;;;;;16.35;6.93;;;;;;;1.91;76.20;99082.16;5018763;28;20146;-78
2021/12/03 07:56:11;;;;;;;18.02;5.95;;;;;;;1.93;75.87;99075.19;5015738;28;20037;-77
2021/12/03 07:58:37;;;;;;;10.60;5.53;;;;;;;1.92;76.37;99079.53;5013792;28;20073;-78
2021/12/03 08:01:03;;;;;;;16.65;6.78;;;;;;;1.96;75.96;99072.50;5017873;28;20444;-78
2021/12/03 08:03:29;;;;;;;21.48;6.10;;;;;;;1.97;75.59;99075.97;5014527;28;20437;-78
2021/12/03 08:05:55;;;;;;;17.17;7.38;;;;;;;1.98;76.13;99073.31;5013670;28;20034;-77
2021/12/03 08:08:25;;;;;;;14.25;6.20;;;;;;;2.01;76.35;99070.63;5015709;28;20034;-78
2021/12/03 08:10:52;;;;;;;13.52;6.82;;;;;;;2.04;75.32;99069.72;5013594;28;20109;-78
2021/12/03 08:13:18;;;;;;;16.48;5.53;;;;;;;2.07;75.50;99073.09;5014658;28;20057;-78
2021/12/03 08:15:43;;;;;;;17.77;6.78;;;;;;;2.08;75.58;99076.53;5022503;28;20041;-78
2021/12/03 08:18:09;;;;;;;11.07;5.68;;;;;;;2.12;75.28;99093.78;5021805;28;20034;-79
2021/12/03 08:20:35;;;;;;;16.35;6.22;;;;;;;2.18;75.47;99093.59;5014570;28;20037;-78
2021/12/03 08:23:01;;;;;;;18.27;5.95;;;;;;;2.20;74.98;99086.63;5031555;28;20045;-78
2021/12/03 08:25:27;;;;;;;14.23;6.68;;;;;;;2.20;74.73;99089.22;5030906;28;20124;-79
2021/12/03 08:27:53;;;;;;;18.55;6.90;;;;;;;2.27;74.92;99101.16;5015320;28;20034;-79
2021/12/03 08:30:19;;;;;;;19.83;6.63;;;;;;;2.31;74.57;99092.41;5035227;28;20455;-78
2021/12/03 08:32:44;;;;;;;10.90;4.70;;;;;;;2.38;74.01;99100.03;5036314;28;20062;-77
2021/12/03 08:35:10;;;;;;;12.80;4.68;;;;;;;2.35;73.80;99094.00;5033330;28;20048;-78
2021/12/03 08:37:36;;;;;;;13.02;5.78;;;;;;;2.30;73.81;99093.28;5031275;28;20449;-77
2021/12/03 08:40:03;;;;;;;23.05;6.53;;;;;;;2.36;73.79;99093.13;5034798;28;20041;-78
2021/12/03 08:42:29;;;;;;;14.68;5.32;;;;;;;2.43;73.26;99096.41;5036820;28;20068;-77
2021/12/03 08:44:54;;;;;;;16.48;6.18;;;;;;;2.48;73.20;99089.31;5038718;28;20037;-78
2021/12/03 08:47:20;;;;;;;16.48;6.07;;;;;;;2.59;72.85;99078.63;5047534;28;20037;-78
2021/12/03 08:49:54;;;;;;;19.25;7.20;;;;;;;2.65;72.27;99088.84;5040394;28;20084;-79
2021/12/03 08:54:49;;;;;;;12.85;5.15;;;;;;;2.73;72.36;99091.22;5025126;28;20030;-76
2021/12/03 08:57:21;;;;;;;21.23;4.97;;;;;;;2.76;72.12;99081.59;5023992;28;20029;-77
2021/12/03 08:59:48;;;;;;;13.43;5.25;;;;;;;2.76;71.84;99086.81;5020055;28;20033;-79
2021/12/03 09:02:13;;;;;;;13.93;4.57;;;;;;;2.74;71.51;99065.16;5029434;28;20056;-79
2021/12/03 09:04:39;;;;;;;20.65;5.53;;;;;;;2.77;71.31;99067.69;5038642;28;20064;-79
2021/12/03 09:07:05;;;;;;;13.13;5.30;;;;;;;2.75;71.80;99074.66;5012350;28;20172;-76
2021/12/03 09:09:31;;;;;;;15.70;5.15;;;;;;;2.69;71.78;99076.63;5020464;28;20493;-69
2021/12/03 09:11:57;;;;;;;13.07;5.13;;;;;;;2.76;71.92;99076.41;5021758;28;20041;-69
2021/12/03 09:14:39;;;;;;;19.13;6.05;;;;;;;2.80;71.91;99077.16;5021372;28;20099;-70
2021/12/03 09:19:37;;;;;;;12.75;4.68;;;;;;;2.87;71.61;99073.47;5011622;28;20038;-69
2021/12/03 09:22:03;;;;;;;17.33;4.38;;;;;;;2.93;72.10;99072.44;5012001;28;20140;-70
2021/12/03 09:24:38;;;;;;;9.45;4.32;;;;;;;2.97;71.59;99076.66;5011622;28;20489;-70
2021/12/03 09:27:03;;;;;;;12.75;4.55;;;;;;;2.97;71.41;99067.09;5010908;28;20041;-70
2021/12/03 09:29:32;;;;;;;16.77;5.20;;;;;;;3.04;71.64;99061.72;5011650;28;20034;-70
2021/12/03 09:31:59;;;;;;;15.43;4.65;;;;;;;3.25;70.66;99070.59;5011632;28;20409;-68
2021/12/03 09:34:25;;;;;;;14.10;4.25;;;;;;;3.45;70.45;99063.03;5011380;28;20088;-68
2021/12/03 09:36:51;;;;;;;9.63;5.13;;;;;;;3.75;68.81;99065.53;5011361;28;20121;-69
2021/12/03 09:39:20;;;;;;;15.48;4.90;;;;;;;3.61;69.26;99052.94;5016375;28;20057;-71
2021/12/03 09:41:46;;;;;;;15.43;4.72;;;;;;;3.55;69.65;99067.03;5018917;28;20451;-68
2021/12/03 09:44:12;;;;;;;14.48;4.82;;;;;;;3.52;69.08;99069.75;5035163;28;20028;-70
2021/12/03 09:46:39;;;;;;;14.10;4.88;;;;;;;3.47;69.36;99071.66;5028653;28;20124;-77
2021/12/03 09:51:41;;;;;;;17.30;6.15;;;;;;;3.46;70.42;99058.66;5033360;28;20812;-80
2021/12/03 09:56:41;;;;;;;12.68;4.72;;;;;;;3.52;69.32;99068.88;5008083;28;20124;-77
2021/12/03 10:01:45;;;;;;;9.63;4.00;;;;;;;3.46;69.86;99064.72;5025819;28;20037;-78
2021/12/03 10:04:37;;;;;;;12.73;5.72;;;;;;;3.50;69.74;99073.31;5032059;28;20083;-82
2021/12/03 10:15:33;;;;;;;18.95;4.57;;;;;;;3.50;69.20;99031.63;4982358;28;20462;-79
2021/12/03 10:20:50;;;;;;;12.73;4.70;;;;;;;3.56;69.60;99020.97;5022270;28;20073;-80
2021/12/03 10:26:55;;;;;;;7.57;4.32;;;;;;;3.46;69.68;99025.63;5025472;28;20096;-81
2021/12/03 10:43:54;;;;;;;14.32;5.63;;;;;;;3.75;69.34;98992.56;5005990;28;20041;-79
2021/12/03 10:46:13;;;;;;;9.60;5.10;;;;;;;3.80;69.18;98999.31;5007398;28;20042;-79
2021/12/03 10:51:43;;;;;;;18.70;6.40;;;;;;;3.82;69.00;98973.19;4996582;28;23359;-78
2021/12/03 10:54:12;;;;;;;;;;;;;;;3.79;69.21;98975.88;4998895;28;20042;-79
2021/12/03 11:03:07;;;;;;;7.00;4.70;;;;;;;3.84;69.32;98967.03;5230882;22;20046;-78
2021/12/03 11:29:31;;;;;;;8.07;4.68;;;;;;;4.06;68.80;98912.34;5049571;28;20041;-79
2021/12/03 11:37:41;;;;;;;9.85;4.43;;;;;;;4.28;68.11;98888.91;5046184;28;20060;-77
2021/12/03 11:40:46;;;;;;;6.43;4.18;;;;;;;4.30;68.14;98891.44;5057323;28;20037;-78
2021/12/03 12:21:17;;;;;;;9.75;3.70;;;;;;;4.40;66.72;98798.84;5016474;28;20053;-79
2021/12/03 13:56:00;;;;;;;12.55;4.43;;;;;;;4.16;66.84;98669.41;5034673;28;20049;-80
2021/12/03 14:07:48;;;;;;;5.25;3.72;;;;;;;4.06;66.69;98645.44;5012807;28;20033;-74
2021/12/03 14:43:21;;;;;;;8.95;3.53;;;;;;;3.75;69.83;98618.03;5028924;28;20037;-75
2021/12/03 14:53:57;;;;;;;9.07;2.63;;;;;;;3.79;69.25;98622.22;5036380;28;20037;-75
2021/12/03 14:56:26;;;;;;;8.98;3.58;;;;;;;3.83;69.99;98618.56;5035099;28;20045;-77
2021/12/03 14:59:22;;;;;;;6.45;3.42;;;;;;;3.88;69.20;98618.38;5028335;28;20051;-78
2021/12/03 15:04:57;;;;;;;6.82;3.00;;;;;;;3.90;69.02;98623.53;5004528;28;20045;-76
2021/12/03 15:07:36;;;;;;;6.00;3.55;;;;;;;3.87;69.52;98614.94;5027632;28;20094;-76
2021/12/03 15:10:11;;;;;;;7.80;3.25;;;;;;;3.88;69.67;98624.44;5030044;28;20037;-77
2021/12/03 15:16:13;;;;;;;4.63;2.97;;;;;;;3.94;69.70;98612.06;5028313;28;20294;-77
2021/12/03 15:27:02;;;;;;;3.85;2.30;;;;;;;3.85;70.42;98598.50;4996113;28;20037;-77
2021/12/03 16:09:00;;;;;;;6.20;3.78;;;;;;;3.78;71.08;98529.28;5037076;28;20043;-79
2021/12/03 16:11:39;;;;;;;4.30;2.42;;;;;;;3.81;71.15;98534.34;5031870;28;20495;-77
2021/12/03 16:16:57;;;;;;;6.03;2.72;;;;;;;3.84;71.21;98522.97;5017718;28;20800;-77
2021/12/03 16:22:24;;;;;;;5.80;3.28;;;;;;;3.84;71.36;98522.97;5027540;28;20048;-76
2021/12/03 16:46:59;;;;;;;3.65;2.75;;;;;;;3.68;74.47;98498.47;5006420;28;20041;-75
2021/12/03 16:51:57;;;;;;;5.00;2.85;;;;;;;3.63;74.55;98499.50;5028809;28;20041;-78
2021/12/03 16:54:36;;;;;;;3.63;2.60;;;;;;;3.68;74.71;98495.84;5022597;28;20037;-76
2021/12/03 16:57:01;;;;;;;4.07;2.35;;;;;;;3.69;74.68;98492.31;5025322;28;20073;-76
2021/12/03 16:59:27;;;;;;;6.97;2.40;;;;;;;3.67;74.59;98497.63;5025767;28;20056;-75
2021/12/03 17:02:04;;;;;;;4.05;2.47;;;;;;;3.68;74.46;98491.47;5010351;28;20037;-75
2021/12/03 17:15:23;;;;;;;4.97;2.50;;;;;;;3.75;74.66;98487.72;5026783;28;20071;-76
2021/12/03 17:31:32;;;;;;;3.67;2.47;;;;;;;3.96;73.85;98488.53;5026153;28;20069;-77
2021/12/03 17:49:53;;;;;;;2.88;2.08;;;;;;;3.88;72.35;98441.09;5045382;28;20033;-75
2021/12/03 17:57:42;;;;;;;4.65;2.20;;;;;;;3.94;72.15;98432.16;5044867;28;20033;-77
2021/12/03 18:00:16;;;;;;;9.38;3.13;;;;;;;3.97;71.75;98430.28;5014029;28;20033;-76
2021/12/03 18:02:45;;;;;;;4.63;2.35;;;;;;;3.98;71.62;98429.34;5045458;28;20132;-77